Time;durP1;ratioP1;P1;durP2;ratioP2;P2;SDS_P1;SDS_P2;PMS_P1;PMS_P2;Temp;Humidity;BMP_temperature;BMP_pressure;BME280_temperature;BME280_humidity;BME280_pressure;Samples;Min_cycle;Max_cycle;Signal;HPM_P1;HPM_P2
2022/12/11 00:01:56;;;;;;;42.67;20.70;;;-5.10;99.90;;;;;;4977409;28;20027;-71
2022/12/11 00:04:22;;;;;;;40.42;20.52;;;-5.20;99.90;;;;;;4977673;28;20022;-72
2022/12/11 00:06:49;;;;;;;46.97;21.92;;;-5.20;99.90;;;;;;4977652;28;20067;-71
2022/12/11 00:09:16;;;;;;;42.33;22.67;;;-5.30;99.90;;;;;;4978141;28;20058;-72
2022/12/11 00:11:41;;;;;;;43.38;22.33;;;-5.30;99.90;;;;;;4977040;28;20406;-71
2022/12/11 00:14:07;;;;;;;47.85;23.67;;;-5.40;99.90;;;;;;4977417;28;20046;-72
2022/12/11 00:16:32;;;;;;;48.47;22.17;;;-5.30;99.90;;;;;;4977439;28;20536;-71
2022/12/11 00:18:58;;;;;;;49.70;23.70;;;-5.40;99.90;;;;;;4977709;28;20023;-71
2022/12/11 00:21:23;;;;;;;49.78;26.75;;;-5.50;99.90;;;;;;4977349;28;20023;-72
2022/12/11 00:23:49;;;;;;;46.72;23.13;;;-5.50;99.90;;;;;;4976763;28;20082;-71
2022/12/11 00:26:15;;;;;;;53.63;25.02;;;-5.50;99.90;;;;;;4977305;28;20042;-71
2022/12/11 00:28:42;;;;;;;53.75;26.50;;;-5.50;99.90;;;;;;4977283;28;20088;-72
2022/12/11 00:31:15;;;;;;;50.28;25.77;;;-5.50;99.90;;;;;;4977406;28;20070;-71
2022/12/11 00:33:41;;;;;;;62.67;28.27;;;-5.60;99.90;;;;;;4977422;28;20034;-71
2022/12/11 00:36:14;;;;;;;61.22;28.15;;;-5.50;99.90;;;;;;4977318;28;20058;-71
2022/12/11 00:38:41;;;;;;;53.38;25.00;;;-5.50;99.90;;;;;;4976923;28;20033;-71
2022/12/11 00:41:07;;;;;;;54.78;23.63;;;-5.50;99.90;;;;;;4977059;28;20023;-71
2022/12/11 00:43:32;;;;;;;53.17;25.98;;;-5.50;99.90;;;;;;4976920;28;20430;-71
2022/12/11 00:45:58;;;;;;;55.20;25.13;;;-5.50;99.90;;;;;;4969130;28;20028;-71
2022/12/11 00:48:23;;;;;;;56.78;25.98;;;-5.60;99.90;;;;;;4967660;28;20419;-72
2022/12/11 00:50:49;;;;;;;52.47;25.00;;;-5.60;99.90;;;;;;4960584;28;20031;-71
2022/12/11 00:53:14;;;;;;;58.38;26.58;;;-5.60;99.90;;;;;;4976993;28;20031;-72
2022/12/11 00:55:41;;;;;;;52.53;25.17;;;-5.60;99.90;;;;;;4976154;28;20073;-71
2022/12/11 00:58:08;;;;;;;55.63;26.83;;;-5.70;99.90;;;;;;4976735;28;20106;-71
2022/12/11 01:00:34;;;;;;;60.63;26.85;;;-5.70;99.90;;;;;;4976714;28;20091;-71
2022/12/11 01:03:00;;;;;;;56.92;27.05;;;-5.70;99.90;;;;;;4976579;28;20109;-72
2022/12/11 01:05:25;;;;;;;56.38;26.83;;;-5.70;99.90;;;;;;4976752;28;20034;-71
2022/12/11 01:07:51;;;;;;;57.38;27.55;;;-5.70;99.90;;;;;;4975321;28;20030;-71
2022/12/11 01:10:22;;;;;;;60.38;28.20;;;-5.70;99.90;;;;;;4975906;28;20023;-72
2022/12/11 01:12:48;;;;;;;59.00;28.27;;;-5.70;99.90;;;;;;4976269;28;20478;-71
2022/12/11 01:15:14;;;;;;;63.22;28.63;;;-5.80;99.90;;;;;;4976333;28;20493;-72
2022/12/11 01:17:40;;;;;;;62.78;27.85;;;-5.80;99.90;;;;;;4976615;28;20101;-72
2022/12/11 01:20:05;;;;;;;61.17;27.80;;;-5.80;99.90;;;;;;4976287;28;20038;-71
2022/12/11 01:22:31;;;;;;;57.67;28.80;;;-5.80;99.90;;;;;;4975422;28;20029;-71
2022/12/11 01:24:57;;;;;;;58.53;26.30;;;-5.80;99.90;;;;;;4976213;28;20027;-71
2022/12/11 01:27:22;;;;;;;58.80;27.13;;;-5.90;99.90;;;;;;4976126;28;20054;-71
2022/12/11 01:29:48;;;;;;;61.40;27.63;;;-5.90;99.90;;;;;;4976127;28;20070;-71
2022/12/11 01:32:14;;;;;;;53.80;25.73;;;-5.90;99.90;;;;;;4974761;28;20391;-72
2022/12/11 01:34:40;;;;;;;54.78;26.52;;;-5.90;99.90;;;;;;4975436;28;20034;-71
2022/12/11 01:37:05;;;;;;;56.38;26.88;;;-6.00;99.90;;;;;;4975873;28;20035;-71
2022/12/11 01:39:31;;;;;;;60.50;28.95;;;-6.00;99.90;;;;;;4974672;28;20430;-71
2022/12/11 01:41:58;;;;;;;52.13;24.90;;;-6.00;99.90;;;;;;4975232;28;20019;-71
2022/12/11 01:44:23;;;;;;;57.00;26.75;;;-6.00;99.90;;;;;;4976163;28;20054;-71
2022/12/11 01:46:49;;;;;;;58.63;25.95;;;-6.10;99.90;;;;;;4975661;28;20062;-71
2022/12/11 01:49:17;;;;;;;56.38;25.95;;;-6.10;99.90;;;;;;4975777;28;20034;-72
2022/12/11 01:51:48;;;;;;;64.72;27.90;;;-6.10;99.90;;;;;;4976165;28;20085;-71
2022/12/11 01:54:16;;;;;;;62.85;28.33;;;-6.10;99.90;;;;;;4974911;28;20030;-71
2022/12/11 01:56:45;;;;;;;64.53;29.40;;;-6.20;99.90;;;;;;4975223;28;20031;-71
2022/12/11 01:59:14;;;;;;;63.60;28.13;;;-6.20;99.90;;;;;;4975337;28;20050;-71
2022/12/11 02:01:59;;;;;;;56.00;26.90;;;-6.20;99.90;;;;;;4975509;28;20121;-71
2022/12/11 02:04:26;;;;;;;60.28;29.42;;;-6.30;99.90;;;;;;4956167;29;20554;-71
2022/12/11 02:06:52;;;;;;;61.72;28.17;;;-6.40;99.90;;;;;;4956001;28;20086;-71
2022/12/11 02:09:23;;;;;;;59.50;27.23;;;-6.40;99.90;;;;;;4956393;28;20054;-71
2022/12/11 02:12:14;;;;;;;54.53;25.50;;;-6.40;99.90;;;;;;4965089;23;20078;-71
2022/12/11 02:15:07;;;;;;;55.75;24.80;;;-6.40;99.90;;;;;;4975632;28;20367;-71
2022/12/11 02:17:51;;;;;;;54.75;24.65;;;-6.50;99.90;;;;;;4974626;28;20023;-71
2022/12/11 02:20:19;;;;;;;55.25;24.98;;;-6.50;99.90;;;;;;4975256;28;20394;-71
2022/12/11 02:23:06;;;;;;;63.85;27.75;;;-6.60;99.90;;;;;;4966849;28;20023;-71
2022/12/11 02:25:58;;;;;;;61.38;26.67;;;-6.60;99.90;;;;;;4955878;29;20027;-71
2022/12/11 02:28:32;;;;;;;54.47;24.67;;;-6.60;99.90;;;;;;4955801;29;20454;-71
2022/12/11 02:31:21;;;;;;;53.97;26.05;;;-6.60;99.90;;;;;;4955214;29;20395;-71
2022/12/11 02:34:10;;;;;;;58.00;25.23;;;-6.70;99.90;;;;;;4948453;29;20480;-71
2022/12/11 02:36:40;;;;;;;59.42;25.33;;;-6.70;99.90;;;;;;4954373;29;20447;-71
2022/12/11 02:39:09;;;;;;;58.70;27.25;;;-6.80;99.90;;;;;;4954138;29;20023;-71
2022/12/11 02:41:36;;;;;;;55.88;25.65;;;-6.70;99.90;;;;;;4955860;28;20471;-72
2022/12/11 02:44:02;;;;;;;57.22;26.08;;;-6.70;99.90;;;;;;4954240;28;20023;-71
2022/12/11 02:46:29;;;;;;;55.92;25.25;;;-6.80;99.90;;;;;;4955789;28;20035;-72
2022/12/11 02:48:56;;;;;;;57.88;25.15;;;-6.80;99.90;;;;;;4955178;28;20059;-71
2022/12/11 02:51:29;;;;;;;59.08;25.38;;;-6.80;99.90;;;;;;4955932;28;20027;-71
2022/12/11 02:53:57;;;;;;;60.00;24.10;;;-6.80;99.90;;;;;;4955414;28;20494;-72
2022/12/11 02:56:32;;;;;;;59.22;25.02;;;-6.80;99.90;;;;;;4955297;28;20035;-72
2022/12/11 02:59:03;;;;;;;53.60;25.25;;;-6.80;99.90;;;;;;4955378;28;20098;-72
2022/12/11 03:01:29;;;;;;;58.97;25.98;;;-6.80;99.90;;;;;;4954096;29;20033;-72
2022/12/11 03:03:56;;;;;;;63.65;26.92;;;-6.80;99.90;;;;;;4954682;28;20481;-71
2022/12/11 03:06:35;;;;;;;58.03;26.25;;;-6.80;99.90;;;;;;4955287;28;20023;-71
2022/12/11 03:09:00;;;;;;;51.90;25.15;;;-6.80;99.90;;;;;;4954616;28;20447;-71
2022/12/11 03:11:26;;;;;;;49.90;23.67;;;-6.80;99.90;;;;;;4955196;29;20035;-71
2022/12/11 03:13:52;;;;;;;52.90;25.15;;;-6.80;99.90;;;;;;4954498;28;20035;-71
2022/12/11 03:16:37;;;;;;;58.15;24.40;;;-6.80;99.90;;;;;;4955110;28;20498;-71
2022/12/11 03:19:09;;;;;;;51.85;22.88;;;-6.90;99.90;;;;;;4955462;28;20038;-71
2022/12/11 03:21:43;;;;;;;50.25;23.58;;;-6.90;99.90;;;;;;4955370;29;20074;-71
2022/12/11 03:24:20;;;;;;;48.25;22.48;;;-6.90;99.90;;;;;;4955130;28;20475;-71
2022/12/11 03:26:54;;;;;;;51.88;24.58;;;-7.10;99.90;;;;;;4954531;29;20368;-71
2022/12/11 03:29:31;;;;;;;54.35;22.98;;;-7.10;99.90;;;;;;4955071;28;20059;-71
2022/12/11 03:32:29;;;;;;;49.83;22.83;;;-7.10;99.90;;;;;;4955530;28;20031;-71
2022/12/11 03:35:02;;;;;;;52.42;23.23;;;-7.20;99.90;;;;;;4946062;29;20574;-71
2022/12/11 03:37:31;;;;;;;54.42;24.10;;;-7.20;99.90;;;;;;4950159;28;20032;-71
2022/12/11 03:40:01;;;;;;;53.03;24.20;;;-7.30;99.90;;;;;;4935789;28;20032;-71
2022/12/11 03:42:27;;;;;;;51.90;23.25;;;-7.30;99.90;;;;;;4935651;28;20376;-71
2022/12/11 03:44:55;;;;;;;57.95;25.67;;;-7.30;99.90;;;;;;4936018;29;20093;-71
2022/12/11 03:47:24;;;;;;;48.85;24.45;;;-7.30;99.90;;;;;;4941188;28;20127;-71
2022/12/11 03:49:52;;;;;;;52.70;24.02;;;-7.40;99.90;;;;;;4955384;28;20027;-71
2022/12/11 03:52:18;;;;;;;57.72;23.52;;;-7.40;99.90;;;;;;4954727;28;20122;-71
2022/12/11 03:54:47;;;;;;;55.05;23.63;;;-7.50;99.90;;;;;;4954794;28;20035;-71
2022/12/11 03:57:18;;;;;;;47.95;22.40;;;-7.50;99.90;;;;;;4954548;28;20034;-71
2022/12/11 03:59:43;;;;;;;57.58;24.98;;;-7.50;99.90;;;;;;4955095;28;20020;-71
2022/12/11 04:02:12;;;;;;;52.03;24.05;;;-7.50;99.90;;;;;;4954162;28;20042;-71
2022/12/11 04:04:39;;;;;;;54.05;24.50;;;-7.50;99.90;;;;;;4954735;28;20020;-71
2022/12/11 04:07:05;;;;;;;58.88;24.75;;;-7.50;99.90;;;;;;4954514;28;20039;-71
2022/12/11 04:09:30;;;;;;;52.17;24.38;;;-7.50;99.90;;;;;;4950198;28;20115;-71
2022/12/11 04:11:56;;;;;;;170.52;44.90;;;-7.50;99.90;;;;;;4934720;29;20479;-71
2022/12/11 04:17:05;;;;;;;142.13;38.53;;;-7.60;99.90;;;;;;4935473;29;20079;-71
2022/12/11 04:25:01;;;;;;;54.03;24.33;;;-7.60;99.90;;;;;;4958612;29;20538;-71
2022/12/11 04:30:23;;;;;;;52.38;23.40;;;-7.70;99.90;;;;;;4957997;29;20031;-71
2022/12/11 04:32:49;;;;;;;55.85;22.52;;;-7.70;99.90;;;;;;4957577;28;20035;-71
2022/12/11 04:35:16;;;;;;;61.20;25.40;;;-7.70;99.90;;;;;;4956577;29;20034;-71
2022/12/11 04:37:42;;;;;;;51.83;23.25;;;-7.70;99.90;;;;;;4957961;28;20039;-71
2022/12/11 04:40:10;;;;;;;52.42;22.95;;;-7.60;99.90;;;;;;4958009;28;20027;-71
2022/12/11 04:42:36;;;;;;;56.72;25.40;;;-7.60;99.90;;;;;;4957897;28;20450;-71
2022/12/11 04:45:02;;;;;;;51.08;24.13;;;-7.60;99.90;;;;;;4958214;28;20067;-71
2022/12/11 04:47:27;;;;;;;55.72;25.48;;;-7.50;99.90;;;;;;4957510;28;20395;-71
2022/12/11 04:49:53;;;;;;;56.28;25.27;;;-7.50;99.90;;;;;;4957117;28;20027;-71
2022/12/11 04:52:19;;;;;;;55.42;25.33;;;-7.40;99.90;;;;;;4957498;28;20078;-71
2022/12/11 04:54:44;;;;;;;53.13;22.95;;;-7.40;99.90;;;;;;4957576;28;20062;-71
2022/12/11 04:57:10;;;;;;;51.65;24.52;;;-7.40;99.90;;;;;;4957348;29;20031;-71
2022/12/11 04:59:36;;;;;;;61.10;26.23;;;-7.30;99.90;;;;;;4957491;28;20031;-71
2022/12/11 05:02:02;;;;;;;58.97;23.77;;;-7.30;99.90;;;;;;4957286;28;20038;-71
2022/12/11 05:04:32;;;;;;;51.67;23.77;;;-7.30;99.90;;;;;;4956869;28;20086;-71
2022/12/11 05:06:58;;;;;;;58.40;25.58;;;-7.20;99.90;;;;;;4957255;28;20491;-71
2022/12/11 05:09:25;;;;;;;58.20;26.65;;;-7.30;99.90;;;;;;4957151;28;20046;-71
2022/12/11 05:11:50;;;;;;;60.78;26.38;;;-7.30;99.90;;;;;;4957282;28;20431;-71
2022/12/11 05:14:16;;;;;;;55.65;25.08;;;-7.30;99.90;;;;;;4956646;28;20124;-71
2022/12/11 05:16:42;;;;;;;63.53;26.95;;;-7.30;99.90;;;;;;4955486;29;20027;-71
2022/12/11 05:19:08;;;;;;;61.58;27.15;;;-7.20;99.90;;;;;;4957076;28;20030;-71
2022/12/11 05:21:33;;;;;;;65.93;25.67;;;-7.10;99.90;;;;;;4956791;28;20024;-71
2022/12/11 05:23:59;;;;;;;58.42;26.20;;;-7.10;99.90;;;;;;4956887;28;20031;-71
2022/12/11 05:26:24;;;;;;;61.53;27.05;;;-7.00;99.90;;;;;;4956924;28;20399;-71
2022/12/11 05:28:53;;;;;;;64.03;27.05;;;-7.00;99.90;;;;;;4956891;28;20484;-71
2022/12/11 05:31:21;;;;;;;71.25;27.95;;;-6.80;99.90;;;;;;4956971;28;20027;-71
2022/12/11 05:33:49;;;;;;;63.92;29.15;;;-6.50;99.90;;;;;;4955509;28;20034;-71
2022/12/11 05:36:20;;;;;;;71.50;31.15;;;-6.20;99.90;;;;;;4955414;29;20027;-71
2022/12/11 05:38:45;;;;;;;76.43;31.63;;;-5.90;99.90;;;;;;4956765;28;20030;-71
2022/12/11 05:41:13;;;;;;;77.18;32.10;;;-5.60;99.90;;;;;;4956682;28;20495;-71
2022/12/11 05:43:38;;;;;;;78.88;32.38;;;-5.40;99.90;;;;;;4956823;28;20023;-71
2022/12/11 05:46:16;;;;;;;74.45;32.50;;;-5.20;99.90;;;;;;4956569;28;20039;-71
2022/12/11 05:48:43;;;;;;;77.95;33.60;;;-5.10;99.90;;;;;;4956110;28;20027;-71
2022/12/11 05:51:09;;;;;;;80.85;34.50;;;-4.90;99.90;;;;;;4956501;28;20027;-71
2022/12/11 05:53:36;;;;;;;80.03;34.08;;;-4.80;99.90;;;;;;4955146;28;20102;-71
2022/12/11 05:56:10;;;;;;;81.80;35.58;;;-4.70;99.90;;;;;;4956324;28;20058;-71
2022/12/11 05:58:36;;;;;;;80.68;32.45;;;-4.60;99.90;;;;;;4956416;28;20027;-71
2022/12/11 06:01:06;;;;;;;74.63;32.92;;;-4.40;99.90;;;;;;4956296;28;20038;-71
2022/12/11 06:03:32;;;;;;;76.88;32.03;;;-4.40;99.90;;;;;;4954424;28;20031;-71
2022/12/11 06:06:01;;;;;;;77.60;34.10;;;-4.30;99.90;;;;;;4956173;28;20023;-71
2022/12/11 06:08:26;;;;;;;71.55;30.90;;;-4.20;99.90;;;;;;4956179;28;20077;-71
2022/12/11 06:10:52;;;;;;;73.60;31.73;;;-4.10;99.90;;;;;;4956668;28;20070;-71
2022/12/11 06:13:17;;;;;;;78.13;33.33;;;-4.10;99.90;;;;;;4955891;28;20039;-72
2022/12/11 06:15:43;;;;;;;66.97;29.73;;;-3.90;99.90;;;;;;4955426;28;20483;-71
2022/12/11 06:18:09;;;;;;;72.93;33.08;;;-4.00;99.90;;;;;;4956503;28;20115;-71
2022/12/11 06:20:35;;;;;;;68.75;31.02;;;-3.90;99.90;;;;;;4955977;28;20066;-71
2022/12/11 06:23:01;;;;;;;73.30;31.92;;;-3.90;99.90;;;;;;4956036;28;20480;-71
2022/12/11 06:25:28;;;;;;;68.65;29.63;;;-3.90;99.90;;;;;;4955872;28;20082;-71
2022/12/11 06:27:53;;;;;;;70.30;29.38;;;-4.00;99.90;;;;;;4955409;28;20391;-71
2022/12/11 06:30:20;;;;;;;62.47;29.58;;;-3.90;99.90;;;;;;4956335;28;20024;-72
2022/12/11 06:32:45;;;;;;;62.80;27.95;;;-4.00;99.90;;;;;;4955668;28;20372;-71
2022/12/11 06:35:11;;;;;;;62.58;28.40;;;-4.00;99.90;;;;;;4955211;28;20110;-71
2022/12/11 06:37:37;;;;;;;64.22;26.92;;;-4.00;99.90;;;;;;4955638;28;20486;-72
2022/12/11 06:40:04;;;;;;;62.83;26.55;;;-4.10;99.90;;;;;;4955920;28;20027;-71
2022/12/11 06:42:30;;;;;;;55.70;26.42;;;-4.20;99.90;;;;;;4955540;28;20023;-71
2022/12/11 06:44:58;;;;;;;60.85;27.50;;;-4.40;99.90;;;;;;4955702;28;20098;-71
2022/12/11 06:47:28;;;;;;;56.55;25.75;;;-4.50;99.90;;;;;;4955811;28;20034;-71
2022/12/11 06:49:54;;;;;;;66.15;26.40;;;-4.70;99.90;;;;;;4955149;28;20030;-71
2022/12/11 06:52:24;;;;;;;53.80;24.20;;;-4.70;99.90;;;;;;4955357;28;20027;-71
2022/12/11 06:54:49;;;;;;;52.10;25.15;;;-4.80;99.90;;;;;;4955719;28;20502;-72
2022/12/11 06:57:16;;;;;;;46.40;22.70;;;-5.00;99.90;;;;;;4955589;28;20099;-72
2022/12/11 06:59:41;;;;;;;47.78;23.42;;;-5.20;99.90;;;;;;4954135;29;20118;-71
2022/12/11 07:02:13;;;;;;;49.55;22.83;;;-5.30;99.90;;;;;;4954721;28;20102;-71
2022/12/11 07:04:39;;;;;;;50.55;23.55;;;-5.40;99.90;;;;;;4955610;28;20058;-71
2022/12/11 07:07:05;;;;;;;51.45;22.52;;;-5.50;99.90;;;;;;4955244;28;20106;-71
2022/12/11 07:09:31;;;;;;;48.28;21.55;;;-5.60;99.90;;;;;;4953979;29;20051;-71
2022/12/11 07:11:57;;;;;;;50.90;23.00;;;-5.60;99.90;;;;;;4955025;28;20070;-71
2022/12/11 07:14:22;;;;;;;46.10;23.38;;;-5.70;99.90;;;;;;4954778;28;20033;-71
2022/12/11 07:16:48;;;;;;;49.80;22.13;;;-5.70;99.90;;;;;;4955232;28;20054;-71
2022/12/11 07:19:13;;;;;;;49.10;23.00;;;-5.80;99.90;;;;;;4955365;28;20107;-72
2022/12/11 07:21:39;;;;;;;49.30;23.00;;;-5.90;99.90;;;;;;4954612;28;20372;-71
2022/12/11 07:24:05;;;;;;;62.10;23.60;;;-6.00;99.90;;;;;;4955009;28;20538;-72
2022/12/11 07:26:31;;;;;;;50.78;22.85;;;-6.00;99.90;;;;;;4955250;28;20027;-71
2022/12/11 07:28:57;;;;;;;45.55;20.55;;;-6.10;99.90;;;;;;4953807;29;20029;-71
2022/12/11 07:31:25;;;;;;;47.20;21.85;;;-6.10;99.90;;;;;;4955046;28;20502;-71
2022/12/11 07:33:55;;;;;;;46.83;19.67;;;-6.10;99.90;;;;;;4953716;28;20032;-71
2022/12/11 07:36:22;;;;;;;47.53;20.38;;;-6.20;99.90;;;;;;4954559;28;20034;-71
2022/12/11 07:38:48;;;;;;;46.05;20.92;;;-6.30;99.90;;;;;;4953732;29;20023;-71
2022/12/11 07:41:14;;;;;;;48.00;22.75;;;-6.30;99.90;;;;;;4954926;28;20054;-71
2022/12/11 07:43:41;;;;;;;55.65;24.08;;;-6.40;99.90;;;;;;4954871;28;20038;-71
2022/12/11 07:46:10;;;;;;;49.45;20.60;;;-6.40;99.90;;;;;;4954857;28;20506;-72
2022/12/11 07:48:37;;;;;;;59.72;24.30;;;-6.40;99.90;;;;;;4953081;29;20031;-72
2022/12/11 07:51:18;;;;;;;57.72;23.52;;;-6.30;99.90;;;;;;4955284;28;20077;-72
2022/12/11 07:53:46;;;;;;;54.47;22.55;;;-6.30;99.90;;;;;;4953545;28;20114;-73
2022/12/11 07:56:12;;;;;;;54.42;25.02;;;-6.20;99.90;;;;;;4956905;28;20535;-73
2022/12/11 07:58:38;;;;;;;62.20;25.05;;;-5.90;99.90;;;;;;4956743;29;20031;-72
2022/12/11 08:01:05;;;;;;;55.72;25.02;;;-5.80;99.90;;;;;;4958735;28;20102;-73
2022/12/11 08:03:30;;;;;;;65.18;26.48;;;-5.70;99.90;;;;;;4958393;28;20033;-72
2022/12/11 08:05:56;;;;;;;68.55;26.50;;;-5.60;99.90;;;;;;4958398;28;20110;-72
2022/12/11 08:08:21;;;;;;;67.88;26.23;;;-5.50;99.90;;;;;;4958396;28;20027;-73
2022/12/11 08:10:47;;;;;;;55.63;23.77;;;-5.40;99.90;;;;;;4958604;28;20360;-72
2022/12/11 08:13:12;;;;;;;59.85;26.33;;;-5.40;99.90;;;;;;4987052;23;20043;-67
2022/12/11 08:15:38;;;;;;;54.95;26.25;;;-5.50;99.90;;;;;;4978036;28;20031;-67
2022/12/11 08:18:04;;;;;;;56.03;23.02;;;-5.50;99.90;;;;;;4977442;28;20027;-67
2022/12/11 08:20:30;;;;;;;48.47;24.05;;;-5.50;99.90;;;;;;4977472;28;20034;-67
2022/12/11 08:22:56;;;;;;;54.13;25.65;;;-5.50;99.90;;;;;;4977378;28;20070;-66
2022/12/11 08:25:22;;;;;;;57.50;27.05;;;-5.40;99.90;;;;;;4977376;28;20023;-66
2022/12/11 08:27:47;;;;;;;57.70;25.60;;;-5.40;99.90;;;;;;4976826;28;20569;-66
2022/12/11 08:30:13;;;;;;;61.33;25.33;;;-5.40;99.90;;;;;;4977327;28;20383;-66
2022/12/11 08:32:39;;;;;;;58.70;26.80;;;-5.30;99.90;;;;;;4977453;28;20033;-67
2022/12/11 08:35:05;;;;;;;56.45;24.58;;;-5.30;99.90;;;;;;4977199;28;20486;-66
2022/12/11 08:37:30;;;;;;;56.15;23.77;;;-5.20;99.90;;;;;;4977635;28;20070;-66
2022/12/11 08:39:56;;;;;;;56.95;25.20;;;-5.20;99.90;;;;;;4976837;28;20051;-66
2022/12/11 08:42:22;;;;;;;58.42;26.40;;;-5.20;99.90;;;;;;4977036;28;20026;-66
2022/12/11 08:44:47;;;;;;;58.83;27.02;;;-5.10;99.90;;;;;;4976934;28;20073;-66
2022/12/11 08:47:14;;;;;;;60.20;25.90;;;-5.00;99.90;;;;;;4977298;28;20031;-66
2022/12/11 08:49:39;;;;;;;55.50;24.27;;;-5.00;99.90;;;;;;4977067;28;20035;-66
2022/12/11 08:52:05;;;;;;;52.92;24.38;;;-4.90;99.90;;;;;;4976392;28;20029;-66
2022/12/11 08:54:31;;;;;;;55.45;25.98;;;-4.80;99.90;;;;;;4977320;28;20027;-66
2022/12/11 08:56:57;;;;;;;55.50;25.25;;;-4.80;99.90;;;;;;4976721;28;20023;-66
2022/12/11 08:59:24;;;;;;;55.17;24.67;;;-4.80;99.90;;;;;;4976763;28;20034;-66
2022/12/11 09:01:50;;;;;;;61.70;25.30;;;-4.70;99.90;;;;;;4976981;28;20023;-66
2022/12/11 09:04:15;;;;;;;61.47;26.33;;;-4.60;99.90;;;;;;4976756;28;20034;-66
2022/12/11 09:06:41;;;;;;;56.53;24.35;;;-4.60;99.90;;;;;;4975281;28;20034;-66
2022/12/11 09:09:06;;;;;;;56.33;25.67;;;-4.50;99.90;;;;;;4976210;28;20486;-66
2022/12/11 09:11:35;;;;;;;55.58;25.55;;;-4.50;99.90;;;;;;4976805;28;20049;-66
2022/12/11 09:14:01;;;;;;;55.38;24.23;;;-4.40;99.90;;;;;;4976401;28;20490;-66
2022/12/11 09:16:27;;;;;;;53.40;25.55;;;-4.40;99.90;;;;;;4976577;28;20090;-66
2022/12/11 09:18:55;;;;;;;55.65;26.55;;;-4.30;99.90;;;;;;4975868;28;20022;-66
2022/12/11 09:21:23;;;;;;;53.15;26.75;;;-4.30;99.90;;;;;;4976543;28;20085;-66
2022/12/11 09:23:52;;;;;;;56.85;24.52;;;-4.20;99.90;;;;;;4976524;28;20023;-66
2022/12/11 09:26:18;;;;;;;57.05;25.55;;;-4.10;99.90;;;;;;4976521;28;20033;-66
2022/12/11 09:28:45;;;;;;;52.30;25.58;;;-4.00;99.90;;;;;;4976502;28;20023;-66
2022/12/11 09:31:30;;;;;;;49.45;24.23;;;-4.00;99.90;;;;;;4975716;28;20484;-66
2022/12/11 09:34:05;;;;;;;55.58;24.40;;;-3.90;99.90;;;;;;4976227;28;20038;-66
2022/12/11 09:36:31;;;;;;;48.97;24.92;;;-3.80;99.90;;;;;;4976031;28;20062;-66
2022/12/11 09:39:05;;;;;;;58.40;24.52;;;-3.80;99.90;;;;;;4975554;28;20023;-66
2022/12/11 09:41:41;;;;;;;54.85;24.58;;;-3.70;99.90;;;;;;4976246;28;20026;-66
2022/12/11 09:44:38;;;;;;;60.00;26.15;;;-3.60;99.90;;;;;;4976148;28;20018;-66
2022/12/11 09:47:39;;;;;;;61.03;25.85;;;-3.60;99.90;;;;;;4976250;28;20026;-66
2022/12/11 09:50:21;;;;;;;60.55;26.23;;;-3.50;99.90;;;;;;4972383;28;20038;-66
2022/12/11 09:52:58;;;;;;;63.30;26.83;;;-3.40;99.90;;;;;;4967768;28;20058;-66
2022/12/11 09:55:28;;;;;;;64.57;26.90;;;-3.40;99.90;;;;;;4956780;28;20394;-66
2022/12/11 09:57:59;;;;;;;63.42;29.27;;;-3.40;99.90;;;;;;4955951;28;20090;-66
2022/12/11 10:00:40;;;;;;;55.10;25.15;;;-3.50;99.90;;;;;;4956180;28;20027;-66
2022/12/11 10:03:17;;;;;;;60.17;27.88;;;-3.40;99.90;;;;;;4956592;28;20540;-66
2022/12/11 10:05:56;;;;;;;61.05;27.45;;;-3.40;99.90;;;;;;4955694;29;20023;-66
2022/12/11 10:08:55;;;;;;;57.15;24.92;;;-3.40;99.90;;;;;;4956764;29;20023;-66
2022/12/11 10:11:34;;;;;;;56.47;24.45;;;-3.50;99.90;;;;;;4956172;29;20360;-66
2022/12/11 10:14:20;;;;;;;65.97;28.25;;;-3.40;99.90;;;;;;4972084;28;20027;-66
2022/12/11 10:16:53;;;;;;;54.55;24.98;;;-3.50;99.90;;;;;;4975401;28;20390;-66
2022/12/11 10:19:23;;;;;;;55.38;26.52;;;-3.40;99.90;;;;;;4974988;28;20394;-66
2022/12/11 10:21:51;;;;;;;61.42;26.17;;;-3.30;99.90;;;;;;4975567;28;20055;-66
2022/12/11 10:24:29;;;;;;;61.35;28.58;;;-3.30;99.90;;;;;;4975310;28;20098;-66
2022/12/11 10:26:58;;;;;;;55.33;25.95;;;-3.20;99.90;;;;;;4975131;28;20375;-66
2022/12/11 10:29:24;;;;;;;61.15;25.98;;;-3.20;99.90;;;;;;4975231;28;20023;-66
2022/12/11 10:31:56;;;;;;;65.65;26.25;;;-3.20;99.90;;;;;;4975082;28;20031;-66
2022/12/11 10:34:34;;;;;;;51.33;23.75;;;-3.10;99.90;;;;;;4975041;28;20506;-66
2022/12/11 10:37:00;;;;;;;61.17;25.73;;;-3.10;99.90;;;;;;4974722;28;20054;-66
2022/12/11 10:39:26;;;;;;;56.53;26.95;;;-3.10;99.90;;;;;;4975214;28;20447;-66
2022/12/11 10:41:54;;;;;;;62.28;27.05;;;-3.10;99.90;;;;;;4974553;28;20050;-66
2022/12/11 10:44:24;;;;;;;53.90;24.38;;;-3.00;99.90;;;;;;4975289;28;20034;-66
2022/12/11 10:47:10;;;;;;;59.67;24.58;;;-3.00;99.90;;;;;;4975082;28;20034;-66
2022/12/11 10:49:37;;;;;;;61.83;28.27;;;-3.00;99.90;;;;;;4974888;28;20023;-66
2022/12/11 10:52:23;;;;;;;56.10;25.02;;;-2.90;99.90;;;;;;4974914;28;20035;-66
2022/12/11 10:55:01;;;;;;;52.63;24.85;;;-2.90;99.90;;;;;;4974950;28;20046;-66
2022/12/11 10:57:33;;;;;;;65.13;27.75;;;-2.90;99.90;;;;;;4974599;28;20443;-66
2022/12/11 11:00:00;;;;;;;56.58;27.80;;;-2.80;99.90;;;;;;4974891;28;20035;-66
2022/12/11 11:02:37;;;;;;;58.80;26.83;;;-2.70;99.90;;;;;;4974905;28;20034;-66
2022/12/11 11:05:15;;;;;;;59.78;26.83;;;-2.70;99.90;;;;;;4974075;28;20019;-66
2022/12/11 11:07:41;;;;;;;54.55;24.70;;;-2.80;99.90;;;;;;4974650;28;20041;-66
2022/12/11 11:10:10;;;;;;;60.45;28.23;;;-2.70;99.90;;;;;;4974464;28;20058;-66
2022/12/11 11:12:42;;;;;;;55.88;25.27;;;-2.70;99.90;;;;;;4974244;28;20058;-66
2022/12/11 11:15:17;;;;;;;49.22;24.70;;;-2.60;99.90;;;;;;4974562;28;20061;-67
2022/12/11 11:17:50;;;;;;;61.83;27.90;;;-2.60;99.90;;;;;;4974033;28;20037;-67
2022/12/11 11:20:19;;;;;;;48.47;23.90;;;-2.60;99.90;;;;;;4974379;28;20106;-67
2022/12/11 11:22:57;;;;;;;55.28;25.70;;;-2.50;99.90;;;;;;4974495;28;20430;-67
2022/12/11 11:25:28;;;;;;;53.38;24.42;;;-2.50;99.90;;;;;;4974305;28;20019;-67
2022/12/11 11:28:05;;;;;;;50.97;24.38;;;-2.50;99.90;;;;;;4974659;28;20034;-67
2022/12/11 11:30:34;;;;;;;54.85;25.17;;;-2.40;99.90;;;;;;4974975;28;20026;-67
2022/12/11 11:33:19;;;;;;;50.42;25.52;;;-2.40;99.90;;;;;;4978309;28;20046;-67
2022/12/11 11:35:53;;;;;;;59.53;27.23;;;-2.40;99.90;;;;;;4978541;28;20058;-67
2022/12/11 11:38:31;;;;;;;52.80;24.17;;;-2.30;99.90;;;;;;4978735;28;20054;-67
2022/12/11 11:41:19;;;;;;;55.45;25.38;;;-2.20;99.90;;;;;;4977812;28;20034;-67
2022/12/11 11:43:51;;;;;;;51.65;25.02;;;-2.20;99.90;;;;;;4978375;28;20033;-66
2022/12/11 11:46:35;;;;;;;51.15;24.58;;;-2.10;99.90;;;;;;4977999;28;20033;-67
2022/12/11 11:49:16;;;;;;;50.30;24.80;;;-2.00;99.90;;;;;;4978374;28;20058;-66
2022/12/11 11:51:57;;;;;;;51.08;24.65;;;-2.00;99.90;;;;;;4977724;28;20037;-66
2022/12/11 11:54:51;;;;;;;47.22;22.60;;;-2.10;99.90;;;;;;4977776;28;20023;-67
2022/12/11 11:57:28;;;;;;;49.83;25.50;;;-2.10;99.90;;;;;;4977691;28;20027;-67
2022/12/11 11:59:58;;;;;;;47.70;24.33;;;-2.10;99.90;;;;;;4978081;28;20026;-66
2022/12/11 12:02:23;;;;;;;49.25;23.55;;;-2.10;99.90;;;;;;4978159;28;20489;-67
2022/12/11 12:04:50;;;;;;;58.35;24.63;;;-2.00;99.90;;;;;;4977758;28;20027;-67
2022/12/11 12:07:48;;;;;;;50.00;22.70;;;-2.00;99.90;;;;;;4977615;28;20550;-67
2022/12/11 12:10:27;;;;;;;48.88;24.15;;;-1.80;99.90;;;;;;4978366;28;20094;-66
2022/12/11 12:12:57;;;;;;;44.03;23.08;;;-1.80;99.90;;;;;;4977723;28;20454;-67
2022/12/11 12:15:34;;;;;;;49.45;25.05;;;-1.70;99.90;;;;;;4977844;28;20121;-67
2022/12/11 12:18:03;;;;;;;49.67;23.42;;;-1.60;99.90;;;;;;4977735;28;20034;-67
2022/12/11 12:21:11;;;;;;;46.72;23.70;;;-1.50;99.90;;;;;;4976892;28;20047;-67
2022/12/11 12:23:51;;;;;;;49.60;23.77;;;-1.30;99.90;;;;;;4972754;28;20035;-67
2022/12/11 12:26:36;;;;;;;42.72;21.63;;;-1.10;99.90;;;;;;4977351;28;20054;-67
2022/12/11 12:29:27;;;;;;;49.63;23.77;;;-1.10;99.90;;;;;;4977028;28;20030;-67
2022/12/11 12:32:05;;;;;;;52.45;25.38;;;-1.00;99.90;;;;;;4977301;28;20031;-67
2022/12/11 12:34:31;;;;;;;50.72;25.63;;;-0.90;99.90;;;;;;4977131;28;20050;-67
2022/12/11 12:37:16;;;;;;;45.67;22.02;;;-0.90;99.90;;;;;;4977038;28;20027;-67
2022/12/11 12:40:08;;;;;;;39.28;20.90;;;-0.70;99.90;;;;;;4977331;28;20027;-66
2022/12/11 12:42:45;;;;;;;44.60;23.58;;;-0.60;99.90;;;;;;4977229;28;20031;-66
2022/12/11 12:45:13;;;;;;;38.58;20.40;;;-0.50;99.90;;;;;;4977309;28;20015;-67
2022/12/11 12:47:42;;;;;;;41.95;20.13;;;-0.20;99.90;;;;;;4977151;28;20035;-67
2022/12/11 12:50:21;;;;;;;44.85;23.13;;;-0.10;99.90;;;;;;4976967;28;20023;-67
2022/12/11 12:52:47;;;;;;;43.45;21.88;;;0.10;99.90;;;;;;4976839;28;20466;-67
2022/12/11 12:55:17;;;;;;;36.80;20.27;;;0.10;99.90;;;;;;4976122;28;20486;-67